Time;durP1;ratioP1;P1;durP2;ratioP2;P2;SDS_P1;SDS_P2;PMS_P1;PMS_P2;Temp;Humidity;BMP_temperature;BMP_pressure;BME280_temperature;BME280_humidity;BME280_pressure;Samples;Min_cycle;Max_cycle;Signal;HPM_P1;HPM_P2
2022/01/31 00:01:05;;;;;;;13.97;5.43;;;4.30;75.30;;;;;;5047728;28;20494;-48
2022/01/31 00:03:34;;;;;;;13.33;4.60;;;4.30;75.40;;;;;;5049934;28;20858;-48
2022/01/31 00:06:02;;;;;;;7.90;5.53;;;4.30;75.30;;;;;;5059178;28;20453;-48
2022/01/31 00:08:30;;;;;;;9.97;4.70;;;4.30;75.30;;;;;;5065690;28;20541;-48
2022/01/31 00:10:56;;;;;;;15.37;3.67;;;4.40;75.40;;;;;;5055582;28;20889;-48
2022/01/31 00:13:34;;;;;;;6.90;4.47;;;4.40;75.30;;;;;;5033993;28;20749;-48
2022/01/31 00:16:02;;;;;;;13.87;5.13;;;4.40;75.40;;;;;;5054008;28;20546;-48
2022/01/31 00:18:29;;;;;;;6.83;3.30;;;4.40;75.10;;;;;;5037847;28;20490;-48
2022/01/31 00:20:56;;;;;;;9.00;3.17;;;4.40;75.20;;;;;;5061382;28;20458;-48
2022/01/31 00:23:23;;;;;;;11.53;3.60;;;4.40;75.00;;;;;;5037599;28;20505;-48
2022/01/31 00:25:49;;;;;;;8.33;4.57;;;4.50;74.40;;;;;;5050346;28;20469;-48
2022/01/31 00:28:16;;;;;;;8.23;3.77;;;4.50;74.30;;;;;;5040970;28;20727;-48
2022/01/31 00:30:45;;;;;;;8.67;3.43;;;4.50;73.50;;;;;;5054921;28;20439;-48
2022/01/31 00:33:13;;;;;;;7.00;3.03;;;4.40;74.10;;;;;;5057955;28;20458;-48
2022/01/31 00:35:40;;;;;;;5.33;3.17;;;4.40;73.90;;;;;;5064984;28;20474;-48
2022/01/31 00:38:06;;;;;;;8.90;3.37;;;4.40;73.50;;;;;;5061864;28;20447;-48
2022/01/31 00:40:35;;;;;;;5.37;2.70;;;4.30;73.70;;;;;;5059019;28;20515;-48
2022/01/31 00:43:01;;;;;;;9.20;3.00;;;4.20;73.90;;;;;;5052989;28;20458;-48
2022/01/31 00:45:30;;;;;;;8.00;2.97;;;4.20;74.10;;;;;;5052030;28;20478;-48
2022/01/31 00:48:02;;;;;;;9.00;3.17;;;4.20;74.20;;;;;;5056527;28;20438;-48
2022/01/31 00:50:30;;;;;;;10.93;5.13;;;4.10;74.50;;;;;;5052644;28;20477;-48
2022/01/31 00:52:57;;;;;;;5.73;3.07;;;4.10;74.60;;;;;;5057869;28;20470;-48
2022/01/31 00:55:24;;;;;;;10.30;3.50;;;4.10;75.30;;;;;;5062360;28;20566;-48
2022/01/31 00:57:52;;;;;;;6.80;3.47;;;4.00;74.90;;;;;;5089838;28;20489;-48
2022/01/31 01:00:19;;;;;;;11.70;3.90;;;4.00;75.30;;;;;;5060387;28;20465;-48
2022/01/31 01:02:46;;;;;;;4.50;2.90;;;4.00;75.00;;;;;;5067292;28;20499;-48
2022/01/31 01:05:14;;;;;;;4.73;3.50;;;4.00;74.80;;;;;;5059670;28;20505;-48
2022/01/31 01:07:45;;;;;;;5.87;3.70;;;3.90;75.20;;;;;;5054228;28;21030;-47
2022/01/31 01:10:16;;;;;;;6.27;3.20;;;3.90;75.40;;;;;;5058690;28;20459;-47
2022/01/31 01:12:48;;;;;;;6.83;3.77;;;3.90;75.50;;;;;;5038787;28;20458;-48
2022/01/31 01:15:15;;;;;;;7.03;3.83;;;3.80;75.90;;;;;;5051287;28;20542;-48
2022/01/31 01:17:43;;;;;;;8.30;4.70;;;3.80;75.80;;;;;;5063420;28;20493;-48
2022/01/31 01:20:10;;;;;;;7.17;3.67;;;3.90;76.10;;;;;;5040374;28;20462;-48
2022/01/31 01:22:37;;;;;;;10.30;4.10;;;3.80;75.80;;;;;;5052961;28;20475;-48
2022/01/31 01:25:06;;;;;;;11.70;5.30;;;3.80;76.10;;;;;;5057442;28;20490;-48
2022/01/31 01:27:33;;;;;;;5.93;3.43;;;3.80;76.40;;;;;;5042939;28;20460;-48
2022/01/31 01:30:03;;;;;;;14.20;4.20;;;3.70;76.60;;;;;;5080477;28;20466;-48
2022/01/31 01:32:34;;;;;;;8.23;3.40;;;3.80;76.60;;;;;;5058756;28;20454;-48
2022/01/31 01:35:05;;;;;;;9.37;4.10;;;3.80;76.40;;;;;;5053833;28;20459;-48
2022/01/31 01:37:32;;;;;;;11.27;3.57;;;3.90;76.20;;;;;;5056606;28;20475;-48
2022/01/31 01:39:59;;;;;;;11.93;3.40;;;3.90;76.60;;;;;;5054127;28;20520;-48
2022/01/31 01:42:26;;;;;;;6.00;3.37;;;4.00;76.20;;;;;;5058579;28;20462;-48
2022/01/31 01:44:53;;;;;;;7.30;3.90;;;4.00;75.90;;;;;;5070193;28;21034;-48
2022/01/31 01:47:22;;;;;;;12.10;3.90;;;4.00;76.10;;;;;;5059160;28;20454;-48
2022/01/31 01:49:50;;;;;;;9.03;3.77;;;4.00;76.30;;;;;;5057197;28;20458;-48
2022/01/31 01:52:18;;;;;;;7.57;3.40;;;4.00;76.40;;;;;;5047610;28;20514;-48
2022/01/31 01:54:46;;;;;;;6.27;3.00;;;4.00;76.30;;;;;;5044523;28;20471;-48
2022/01/31 01:57:13;;;;;;;8.63;3.57;;;4.10;76.00;;;;;;5059590;28;20531;-48
2022/01/31 01:59:41;;;;;;;11.10;3.80;;;4.20;76.00;;;;;;5074037;28;20531;-48
2022/01/31 02:02:08;;;;;;;10.13;3.80;;;4.20;75.80;;;;;;5068151;28;20529;-48
2022/01/31 02:04:35;;;;;;;7.67;3.80;;;4.20;75.90;;;;;;5058915;28;20868;-48
2022/01/31 02:07:02;;;;;;;6.03;3.20;;;4.20;75.80;;;;;;5058242;28;20542;-48
2022/01/31 02:09:31;;;;;;;9.90;3.20;;;4.30;75.50;;;;;;5060516;28;20450;-48
2022/01/31 02:11:59;;;;;;;5.77;3.43;;;4.30;75.80;;;;;;5056403;28;20530;-48
2022/01/31 02:14:26;;;;;;;5.53;2.70;;;4.30;75.70;;;;;;5056197;28;20469;-49
2022/01/31 02:16:54;;;;;;;8.27;3.43;;;4.40;75.70;;;;;;5043869;28;20485;-48
2022/01/31 02:19:22;;;;;;;7.70;3.70;;;4.40;75.10;;;;;;5058094;28;20458;-48
2022/01/31 02:21:52;;;;;;;9.93;3.73;;;4.40;75.20;;;;;;5041318;28;20460;-48
2022/01/31 02:24:20;;;;;;;10.70;3.20;;;4.50;75.30;;;;;;5042434;28;20497;-48
2022/01/31 02:26:49;;;;;;;6.90;4.40;;;4.50;74.90;;;;;;5047214;28;20454;-48
2022/01/31 02:29:16;;;;;;;18.13;8.30;;;4.50;75.00;;;;;;5048369;28;20522;-48
2022/01/31 02:31:47;;;;;;;17.23;6.90;;;4.40;75.20;;;;;;5058397;28;20661;-48
2022/01/31 02:34:15;;;;;;;12.13;5.43;;;4.40;75.60;;;;;;5051422;28;20533;-48
2022/01/31 02:36:43;;;;;;;5.20;3.10;;;4.50;75.70;;;;;;5061610;28;20463;-48
2022/01/31 02:39:10;;;;;;;8.27;3.80;;;4.50;75.80;;;;;;5058978;28;20940;-48
2022/01/31 02:41:42;;;;;;;9.33;3.33;;;4.60;75.60;;;;;;5055398;28;20548;-48
2022/01/31 02:44:14;;;;;;;12.97;4.33;;;4.60;75.80;;;;;;5016959;28;20539;-48
2022/01/31 02:46:55;;;;;;;8.00;3.63;;;4.60;75.60;;;;;;5061710;28;20446;-48
2022/01/31 02:49:26;;;;;;;11.93;4.43;;;4.60;75.80;;;;;;5043943;28;20470;-48
2022/01/31 02:52:01;;;;;;;11.93;3.90;;;4.60;75.80;;;;;;5056552;28;20487;-48
2022/01/31 02:54:30;;;;;;;8.77;3.93;;;4.60;76.00;;;;;;5055268;28;20478;-48
2022/01/31 02:56:57;;;;;;;9.17;4.00;;;4.50;76.00;;;;;;5041662;28;21113;-48
2022/01/31 02:59:24;;;;;;;8.97;4.00;;;4.50;75.90;;;;;;5055561;28;20463;-48
2022/01/31 03:01:51;;;;;;;5.20;4.53;;;4.60;75.70;;;;;;5054665;28;20463;-47
2022/01/31 03:04:18;;;;;;;14.13;5.03;;;4.60;75.80;;;;;;5043427;28;20520;-48
2022/01/31 03:06:49;;;;;;;6.77;3.90;;;4.50;75.90;;;;;;5056643;28;20519;-48
2022/01/31 03:09:17;;;;;;;13.67;8.40;;;4.50;76.00;;;;;;5063867;28;20486;-48
2022/01/31 03:11:44;;;;;;;17.73;10.80;;;4.60;75.80;;;;;;5048181;28;20456;-49
2022/01/31 03:14:11;;;;;;;14.60;8.93;;;4.60;75.70;;;;;;5056271;28;20973;-48
2022/01/31 03:16:42;;;;;;;6.90;5.30;;;4.60;75.70;;;;;;5061949;28;20899;-48
2022/01/31 03:19:09;;;;;;;8.80;3.80;;;4.60;75.70;;;;;;5050934;28;20465;-47
2022/01/31 03:21:37;;;;;;;12.00;4.77;;;4.60;75.50;;;;;;5061722;28;20551;-48
2022/01/31 03:24:05;;;;;;;8.60;4.03;;;4.60;75.50;;;;;;5047445;28;20478;-48
2022/01/31 03:26:32;;;;;;;10.10;4.70;;;4.60;75.50;;;;;;5055064;28;20467;-47
2022/01/31 03:28:59;;;;;;;8.87;4.23;;;4.60;75.80;;;;;;5056475;28;20477;-48
2022/01/31 03:31:27;;;;;;;20.33;4.23;;;4.60;75.90;;;;;;5040986;28;20457;-47
2022/01/31 03:33:54;;;;;;;8.27;5.20;;;4.60;75.80;;;;;;5058052;28;20579;-48
2022/01/31 03:36:22;;;;;;;8.20;4.03;;;4.50;75.80;;;;;;5058145;28;20542;-48
2022/01/31 03:38:49;;;;;;;15.50;4.77;;;4.50;76.10;;;;;;5056954;28;20452;-48
2022/01/31 03:41:20;;;;;;;6.13;3.40;;;4.50;76.30;;;;;;5020290;28;20515;-48
2022/01/31 03:43:47;;;;;;;5.97;3.03;;;4.60;76.30;;;;;;5043758;28;20462;-48
2022/01/31 03:46:14;;;;;;;10.57;4.30;;;4.60;76.20;;;;;;5043353;28;20574;-49
2022/01/31 03:48:50;;;;;;;8.60;3.37;;;4.60;76.40;;;;;;5037149;28;20496;-49
2022/01/31 03:51:16;;;;;;;6.10;3.60;;;4.70;76.30;;;;;;5038918;28;20473;-49
2022/01/31 03:53:44;;;;;;;6.00;3.47;;;4.70;76.30;;;;;;5025025;28;20455;-49
2022/01/31 03:56:10;;;;;;;6.60;3.40;;;4.70;76.50;;;;;;5031320;28;20941;-49
2022/01/31 03:58:37;;;;;;;7.80;3.73;;;4.70;76.50;;;;;;5038771;28;20474;-48
2022/01/31 04:01:04;;;;;;;8.60;4.23;;;4.70;76.30;;;;;;5036746;28;20967;-46
2022/01/31 04:03:31;;;;;;;7.27;3.80;;;4.70;76.30;;;;;;5038932;28;20500;-47
2022/01/31 04:05:58;;;;;;;8.27;3.63;;;4.70;76.40;;;;;;5035947;28;20494;-47
2022/01/31 04:08:25;;;;;;;5.07;3.17;;;4.70;76.70;;;;;;5039965;28;20501;-47
2022/01/31 04:10:51;;;;;;;9.63;3.80;;;4.70;76.80;;;;;;5037859;28;20740;-47
2022/01/31 04:13:19;;;;;;;10.50;3.90;;;4.70;77.10;;;;;;5021567;28;20451;-47
2022/01/31 04:15:46;;;;;;;6.97;3.50;;;4.70;77.40;;;;;;5025131;28;20875;-47
2022/01/31 04:18:13;;;;;;;5.77;3.27;;;4.70;77.30;;;;;;5034742;28;20957;-46
2022/01/31 04:20:40;;;;;;;9.43;5.10;;;4.70;77.50;;;;;;5034908;28;20458;-46
2022/01/31 04:23:11;;;;;;;12.17;4.17;;;4.70;77.40;;;;;;5034358;28;20575;-47
2022/01/31 04:30:59;;;;;;;11.07;4.27;;;4.80;77.20;;;;;;5031162;28;20469;-46
2022/01/31 04:33:28;;;;;;;7.20;3.50;;;4.80;77.10;;;;;;5026126;28;20497;-46
2022/01/31 04:35:55;;;;;;;7.13;3.50;;;4.90;77.10;;;;;;5039222;28;20955;-47
2022/01/31 04:38:22;;;;;;;6.93;4.13;;;4.90;77.20;;;;;;5023378;28;20991;-47
2022/01/31 04:40:49;;;;;;;9.60;4.10;;;4.90;77.50;;;;;;5027541;28;20462;-47
2022/01/31 04:43:16;;;;;;;9.47;3.83;;;4.90;78.00;;;;;;5024333;28;20463;-47
2022/01/31 04:45:47;;;;;;;10.20;4.47;;;4.90;78.60;;;;;;5039038;28;20474;-46
2022/01/31 04:48:16;;;;;;;16.00;4.37;;;4.90;80.00;;;;;;5039442;28;20451;-46
2022/01/31 04:50:44;;;;;;;6.50;4.00;;;4.90;80.40;;;;;;5053097;28;20468;-46
2022/01/31 04:53:12;;;;;;;12.00;3.80;;;4.80;81.30;;;;;;5036092;28;20464;-46
2022/01/31 04:55:40;;;;;;;6.90;3.87;;;4.80;81.80;;;;;;5052491;28;20514;-46
2022/01/31 04:58:08;;;;;;;9.47;5.07;;;4.80;82.50;;;;;;5041348;28;21154;-47
2022/01/31 05:00:35;;;;;;;8.93;4.27;;;4.80;82.60;;;;;;5035661;28;20482;-46
2022/01/31 05:03:08;;;;;;;8.73;3.73;;;4.70;83.10;;;;;;5036516;28;20471;-46
2022/01/31 05:05:35;;;;;;;12.67;4.40;;;4.70;83.80;;;;;;5016821;28;20586;-47
2022/01/31 05:08:03;;;;;;;11.50;4.77;;;4.70;84.50;;;;;;5052536;28;21294;-46
2022/01/31 05:10:30;;;;;;;8.93;4.47;;;4.60;84.80;;;;;;5032585;28;20468;-46
2022/01/31 05:12:57;;;;;;;6.93;4.10;;;4.60;85.40;;;;;;5022017;28;20462;-47
2022/01/31 05:15:24;;;;;;;8.83;4.00;;;4.60;86.10;;;;;;5039251;28;20474;-47
2022/01/31 05:17:57;;;;;;;6.47;3.40;;;4.60;86.20;;;;;;5035485;28;20821;-46
2022/01/31 05:20:24;;;;;;;18.60;9.10;;;4.60;86.20;;;;;;5041296;28;20452;-47
2022/01/31 05:22:51;;;;;;;8.50;4.73;;;4.60;86.40;;;;;;5041396;28;20784;-47
2022/01/31 05:25:18;;;;;;;11.77;4.40;;;4.60;86.80;;;;;;5040458;28;20497;-47
2022/01/31 05:27:44;;;;;;;5.03;3.67;;;4.50;86.60;;;;;;5042871;28;20446;-47
2022/01/31 05:30:11;;;;;;;8.40;3.50;;;4.60;86.60;;;;;;5041965;28;20459;-47
2022/01/31 05:32:38;;;;;;;11.67;4.20;;;4.60;86.50;;;;;;5040011;28;20768;-48
2022/01/31 05:35:05;;;;;;;7.87;4.73;;;4.50;86.50;;;;;;5043062;28;20490;-48
2022/01/31 05:37:33;;;;;;;8.07;3.53;;;4.50;86.90;;;;;;5041931;28;20468;-47
2022/01/31 05:40:00;;;;;;;6.13;3.63;;;4.50;87.10;;;;;;5041550;28;20483;-47
2022/01/31 05:42:26;;;;;;;8.07;3.23;;;4.50;87.30;;;;;;5041161;28;20450;-47
2022/01/31 05:44:53;;;;;;;7.77;3.70;;;4.50;87.20;;;;;;5040594;28;20487;-47
2022/01/31 05:47:21;;;;;;;6.53;3.60;;;4.60;86.80;;;;;;5044398;28;20525;-47
2022/01/31 05:49:48;;;;;;;3.67;3.23;;;4.60;87.10;;;;;;5037653;28;21014;-47
2022/01/31 05:52:15;;;;;;;4.37;3.30;;;4.60;87.30;;;;;;5041406;28;20466;-47
2022/01/31 05:54:46;;;;;;;5.83;3.47;;;4.60;87.20;;;;;;5040691;28;20466;-47
2022/01/31 05:57:15;;;;;;;9.97;3.20;;;4.60;87.10;;;;;;5044193;28;20453;-47
2022/01/31 05:59:42;;;;;;;6.83;3.73;;;4.60;87.40;;;;;;5012046;28;20843;-47
2022/01/31 06:02:09;;;;;;;3.00;2.70;;;4.50;87.60;;;;;;5026223;28;20838;-47
2022/01/31 06:04:37;;;;;;;4.53;3.30;;;4.60;87.80;;;;;;5046921;28;20532;-47
2022/01/31 06:07:04;;;;;;;6.73;2.93;;;4.60;87.70;;;;;;5043887;28;20469;-47
2022/01/31 06:09:32;;;;;;;5.87;2.43;;;4.60;87.80;;;;;;5023159;28;20566;-47
2022/01/31 06:12:02;;;;;;;4.20;3.80;;;4.60;87.90;;;;;;5038714;28;20950;-48
2022/01/31 06:14:29;;;;;;;5.07;2.67;;;4.60;87.80;;;;;;5028408;28;20842;-47
2022/01/31 06:16:57;;;;;;;3.50;2.43;;;4.60;88.10;;;;;;5036863;28;20465;-47
2022/01/31 06:19:24;;;;;;;6.53;2.40;;;4.60;88.20;;;;;;5043345;28;20463;-48
2022/01/31 06:21:51;;;;;;;3.27;2.57;;;4.60;87.80;;;;;;5037958;28;20498;-48
2022/01/31 06:24:18;;;;;;;4.13;2.70;;;4.60;88.00;;;;;;5040736;28;20565;-48
2022/01/31 06:26:45;;;;;;;3.03;2.70;;;4.60;87.90;;;;;;5053077;28;20495;-48
2022/01/31 06:29:12;;;;;;;2.57;2.37;;;4.60;88.10;;;;;;5029762;28;20510;-48
2022/01/31 06:31:39;;;;;;;3.60;2.57;;;4.70;87.90;;;;;;5020238;28;20463;-48
2022/01/31 06:34:06;;;;;;;3.73;2.50;;;4.70;87.30;;;;;;5058703;28;20542;-48
2022/01/31 06:36:34;;;;;;;5.87;3.00;;;4.70;87.40;;;;;;5037090;28;20833;-48
2022/01/31 06:39:01;;;;;;;4.67;2.20;;;4.70;87.30;;;;;;5055616;28;20457;-48
2022/01/31 06:41:28;;;;;;;3.10;2.73;;;4.70;87.30;;;;;;5040096;28;21097;-48
2022/01/31 06:43:56;;;;;;;3.23;2.13;;;4.70;87.10;;;;;;4994410;28;20459;-48
2022/01/31 06:46:23;;;;;;;2.17;2.07;;;4.80;87.00;;;;;;5024095;28;20487;-48
2022/01/31 06:48:50;;;;;;;2.67;1.93;;;4.80;86.80;;;;;;5038768;28;20811;-48
2022/01/31 06:51:18;;;;;;;3.03;1.80;;;4.80;86.60;;;;;;5025360;28;20953;-48
2022/01/31 06:53:48;;;;;;;2.70;2.50;;;4.80;86.70;;;;;;5040292;28;20440;-50
2022/01/31 06:56:18;;;;;;;1.80;1.70;;;4.80;86.50;;;;;;5072676;28;20819;-50
2022/01/31 06:58:49;;;;;;;2.20;1.30;;;4.80;86.50;;;;;;5058217;28;20488;-50
2022/01/31 07:01:17;;;;;;;2.43;1.40;;;4.80;86.50;;;;;;5059878;28;20467;-50
2022/01/31 07:03:44;;;;;;;1.23;1.13;;;4.90;86.40;;;;;;5055638;28;20466;-50
2022/01/31 07:06:12;;;;;;;1.57;1.47;;;4.90;86.20;;;;;;5062263;28;20541;-51
2022/01/31 07:08:38;;;;;;;1.37;1.27;;;4.80;86.40;;;;;;5045340;28;20523;-50
2022/01/31 07:11:05;;;;;;;1.40;1.30;;;4.80;86.30;;;;;;5050889;28;20462;-50
2022/01/31 07:15:59;;;;;;;2.20;1.60;;;4.80;86.20;;;;;;5059536;28;20865;-48
2022/01/31 07:18:26;;;;;;;1.90;1.40;;;4.90;86.00;;;;;;5059908;28;20459;-49
2022/01/31 07:20:53;;;;;;;1.93;1.60;;;4.90;86.00;;;;;;5041151;28;20462;-49
2022/01/31 07:23:27;;;;;;;2.57;1.40;;;4.90;86.00;;;;;;5037329;28;20491;-49
2022/01/31 07:25:58;;;;;;;4.00;1.17;;;4.90;86.00;;;;;;5058653;28;20489;-49
2022/01/31 07:28:25;;;;;;;4.63;1.97;;;4.80;86.00;;;;;;5040763;28;20967;-50
2022/01/31 07:30:52;;;;;;;1.77;1.40;;;4.90;85.90;;;;;;5053858;28;20493;-49
2022/01/31 07:33:20;;;;;;;2.33;1.60;;;4.90;86.00;;;;;;5053285;28;20466;-50
2022/01/31 07:35:49;;;;;;;2.17;1.70;;;4.90;86.40;;;;;;5059091;28;20463;-50
2022/01/31 07:38:17;;;;;;;2.17;1.47;;;5.00;87.00;;;;;;5053675;28;20561;-50
2022/01/31 07:40:45;;;;;;;1.70;1.30;;;5.00;87.20;;;;;;5058624;28;20458;-50
2022/01/31 07:43:12;;;;;;;1.93;1.73;;;5.00;87.10;;;;;;5060103;28;20446;-50
2022/01/31 07:45:39;;;;;;;1.43;1.30;;;5.00;87.20;;;;;;5062974;28;20533;-50
2022/01/31 07:48:07;;;;;;;3.37;1.60;;;5.10;87.20;;;;;;5052104;28;20925;-50
2022/01/31 07:50:36;;;;;;;1.87;1.60;;;5.00;87.50;;;;;;5068932;28;20515;-50
2022/01/31 07:53:09;;;;;;;4.20;1.80;;;5.10;87.50;;;;;;5051770;28;20514;-51
2022/01/31 07:55:37;;;;;;;2.60;2.23;;;5.10;87.50;;;;;;5077064;28;20482;-49
2022/01/31 07:58:03;;;;;;;3.77;1.80;;;5.10;87.50;;;;;;5066990;28;20526;-50
2022/01/31 08:00:47;;;;;;;4.93;1.87;;;5.10;87.50;;;;;;5057390;28;20467;-51
2022/01/31 08:03:14;;;;;;;2.60;1.97;;;5.20;87.30;;;;;;5056957;28;20486;-50
2022/01/31 08:05:41;;;;;;;7.73;4.20;;;5.20;87.20;;;;;;5043688;28;20556;-51
2022/01/31 08:08:09;;;;;;;2.20;1.87;;;5.30;86.90;;;;;;5054149;28;20455;-50
2022/01/31 08:10:37;;;;;;;1.43;1.33;;;5.20;86.50;;;;;;5039582;28;20530;-50
2022/01/31 08:13:07;;;;;;;1.93;1.40;;;5.20;86.70;;;;;;5048927;28;20452;-50
2022/01/31 08:15:44;;;;;;;2.13;1.70;;;5.20;86.30;;;;;;5060311;28;20533;-51
2022/01/31 08:18:12;;;;;;;1.47;1.33;;;5.20;86.20;;;;;;5043005;28;20901;-51
2022/01/31 08:20:43;;;;;;;2.73;1.70;;;5.30;86.00;;;;;;5061220;28;20469;-50
2022/01/31 08:23:10;;;;;;;2.20;0.83;;;5.30;85.80;;;;;;5058441;28;20482;-51
2022/01/31 08:25:38;;;;;;;3.63;1.30;;;5.30;85.40;;;;;;5061479;28;20553;-50
2022/01/31 08:28:10;;;;;;;2.33;1.43;;;5.30;85.30;;;;;;5055978;28;20490;-50
2022/01/31 08:30:54;;;;;;;1.53;1.43;;;5.30;85.30;;;;;;5056766;28;20494;-50
2022/01/31 08:33:37;;;;;;;3.10;1.70;;;5.30;85.50;;;;;;5054855;28;20535;-51
2022/01/31 08:36:06;;;;;;;1.20;1.10;;;5.30;85.80;;;;;;5040925;28;20455;-50
2022/01/31 08:38:36;;;;;;;3.90;1.70;;;5.30;85.50;;;;;;5050635;28;20845;-51
2022/01/31 08:41:03;;;;;;;1.73;1.63;;;5.40;85.70;;;;;;5072663;28;20511;-50
2022/01/31 08:43:31;;;;;;;1.10;1.00;;;5.40;85.80;;;;;;5066798;28;20458;-50
2022/01/31 08:45:58;;;;;;;1.43;1.33;;;5.50;85.60;;;;;;5045868;28;20721;-50
2022/01/31 08:48:26;;;;;;;1.83;1.33;;;5.50;85.70;;;;;;5053100;28;20491;-50
2022/01/31 08:50:54;;;;;;;1.63;1.40;;;5.60;85.10;;;;;;5040191;28;20441;-50
2022/01/31 08:53:22;;;;;;;3.80;1.67;;;5.70;85.30;;;;;;5074518;28;20461;-50
2022/01/31 08:55:54;;;;;;;2.27;1.63;;;5.80;84.50;;;;;;5064434;28;20446;-50
2022/01/31 08:58:22;;;;;;;1.37;1.27;;;5.80;84.70;;;;;;5049477;28;20439;-50
2022/01/31 09:00:58;;;;;;;2.90;2.00;;;5.90;85.50;;;;;;5051319;28;20469;-50
2022/01/31 09:06:06;;;;;;;4.10;1.33;;;6.10;85.10;;;;;;5057693;28;20545;-49
2022/01/31 09:08:36;;;;;;;2.70;1.73;;;6.20;84.90;;;;;;5040312;28;20524;-49
2022/01/31 09:11:04;;;;;;;2.60;1.50;;;6.20;84.60;;;;;;5038397;28;20484;-48
2022/01/31 09:13:32;;;;;;;2.87;1.87;;;6.20;84.10;;;;;;5057212;28;20455;-49
2022/01/31 09:15:59;;;;;;;4.10;1.80;;;6.20;84.40;;;;;;5059619;28;20456;-50
2022/01/31 09:18:27;;;;;;;3.87;1.80;;;6.10;84.70;;;;;;5060243;28;20464;-49
2022/01/31 09:20:55;;;;;;;2.43;1.40;;;6.20;84.80;;;;;;5033626;28;20518;-49
2022/01/31 09:23:21;;;;;;;5.60;2.13;;;6.20;84.50;;;;;;5060830;28;20563;-50
2022/01/31 09:25:48;;;;;;;6.57;2.20;;;6.20;84.20;;;;;;5061399;28;20501;-50
2022/01/31 09:28:26;;;;;;;3.37;1.50;;;6.30;84.10;;;;;;5067324;28;20823;-50
2022/01/31 09:30:55;;;;;;;2.03;1.63;;;6.30;83.70;;;;;;5061729;28;20482;-51
2022/01/31 09:33:25;;;;;;;2.50;1.60;;;6.30;84.40;;;;;;5054899;28;20463;-51
2022/01/31 09:35:52;;;;;;;2.30;1.33;;;6.30;84.10;;;;;;5059558;28;20466;-51
2022/01/31 09:38:23;;;;;;;1.97;1.37;;;6.30;83.60;;;;;;5040052;28;20467;-51
2022/01/31 09:40:52;;;;;;;3.03;1.77;;;6.40;83.60;;;;;;5061783;28;20468;-50
2022/01/31 09:48:31;;;;;;;3.87;3.10;;;6.50;82.50;;;;;;5064829;28;20450;-50
2022/01/31 09:51:05;;;;;;;3.40;1.40;;;6.50;82.90;;;;;;5055146;28;20454;-50
2022/01/31 09:54:03;;;;;;;3.00;1.97;;;6.50;83.50;;;;;;5058700;28;20579;-51
2022/01/31 09:56:33;;;;;;;2.73;1.10;;;6.50;82.70;;;;;;5065943;28;20463;-51
2022/01/31 09:59:02;;;;;;;2.30;1.20;;;6.50;83.80;;;;;;5045188;28;20454;-50
2022/01/31 10:01:34;;;;;;;2.80;1.30;;;6.50;84.30;;;;;;5061997;28;20892;-50
2022/01/31 10:04:09;;;;;;;4.07;1.30;;;6.60;84.40;;;;;;5045743;28;20461;-50
2022/01/31 10:06:38;;;;;;;2.83;0.90;;;6.60;83.80;;;;;;5059522;28;21046;-50
2022/01/31 10:09:21;;;;;;;0.93;0.93;;;6.70;83.00;;;;;;5053126;28;20535;-50
2022/01/31 10:12:11;;;;;;;1.57;1.47;;;6.70;83.00;;;;;;5064382;28;20538;-50
2022/01/31 10:17:30;;;;;;;2.90;1.20;;;6.70;83.20;;;;;;5061473;28;20454;-51
2022/01/31 10:20:18;;;;;;;1.23;1.00;;;6.80;82.90;;;;;;5064392;28;20490;-50
2022/01/31 10:23:15;;;;;;;4.17;0.90;;;6.80;82.70;;;;;;5059433;28;20469;-51
2022/01/31 10:25:43;;;;;;;2.33;0.80;;;6.90;82.30;;;;;;5061687;28;20459;-50
2022/01/31 10:28:13;;;;;;;2.20;0.90;;;6.80;82.70;;;;;;5060028;28;21009;-50
2022/01/31 10:30:41;;;;;;;1.57;0.93;;;6.90;81.50;;;;;;5057269;28;20454;-50
2022/01/31 10:33:12;;;;;;;0.60;0.60;;;6.80;81.30;;;;;;5053143;28;20451;-50
2022/01/31 10:35:41;;;;;;;2.40;0.70;;;6.90;81.40;;;;;;5060831;28;20474;-50
2022/01/31 10:38:16;;;;;;;2.27;0.80;;;6.80;82.10;;;;;;5054018;28;20519;-50
2022/01/31 10:50:37;;;;;;;2.20;0.63;;;6.80;81.70;;;;;;5063498;28;20474;-49
2022/01/31 10:52:09;;;;;;;1.03;0.60;;;6.70;83.70;;;;;;5023110;28;20465;-49
2022/01/31 10:54:40;;;;;;;0.97;0.80;;;6.80;83.90;;;;;;5054404;28;20462;-50
2022/01/31 10:57:15;;;;;;;1.27;0.90;;;6.80;83.70;;;;;;5051270;28;20456;-50
2022/01/31 10:59:45;;;;;;;2.03;1.10;;;6.90;83.30;;;;;;5072007;28;20482;-49
2022/01/31 11:02:25;;;;;;;1.87;1.00;;;6.90;82.80;;;;;;5035762;28;20505;-49
2022/01/31 11:04:54;;;;;;;0.87;0.70;;;6.80;83.30;;;;;;5054334;28;20468;-49
2022/01/31 11:07:25;;;;;;;1.13;0.90;;;6.80;83.50;;;;;;5046562;28;20554;-49
2022/01/31 11:09:53;;;;;;;1.83;1.37;;;6.80;82.80;;;;;;5050477;28;20981;-47
2022/01/31 11:12:25;;;;;;;1.10;0.73;;;6.80;82.70;;;;;;5049130;28;20891;-47
2022/01/31 11:14:54;;;;;;;1.43;0.70;;;6.90;82.90;;;;;;5037599;28;20497;-47
2022/01/31 11:17:22;;;;;;;0.70;0.57;;;6.80;83.30;;;;;;5040655;28;20550;-47
2022/01/31 11:19:56;;;;;;;1.60;0.83;;;6.80;83.30;;;;;;5037173;28;20463;-47
2022/01/31 11:22:30;;;;;;;2.10;1.00;;;6.80;83.10;;;;;;5037482;28;21060;-47
2022/01/31 11:25:16;;;;;;;0.93;0.67;;;6.80;82.30;;;;;;5039455;28;20460;-51
2022/01/31 11:27:57;;;;;;;1.13;0.53;;;6.80;82.40;;;;;;5040560;28;21015;-51
2022/01/31 12:54:28;;;;;;;0.70;0.70;;;6.30;82.70;;;;;;5005033;28;20487;-47
2022/01/31 12:57:19;;;;;;;2.50;0.63;;;6.40;82.80;;;;;;4995634;28;20487;-46
2022/01/31 12:59:49;;;;;;;2.10;0.50;;;6.50;82.40;;;;;;5004870;28;20465;-47
2022/01/31 13:02:16;;;;;;;2.63;1.67;;;6.50;82.00;;;;;;5003473;28;20459;-47
2022/01/31 13:04:48;;;;;;;0.60;0.50;;;6.50;81.60;;;;;;5005455;28;20551;-47
2022/01/31 13:07:18;;;;;;;1.77;0.60;;;6.50;81.30;;;;;;5003952;28;20937;-46
2022/01/31 13:10:10;;;;;;;4.50;1.03;;;6.40;82.40;;;;;;5003699;28;20457;-48
2022/01/31 13:12:37;;;;;;;0.80;0.70;;;6.40;82.10;;;;;;5013053;28;20896;-47
2022/01/31 13:15:04;;;;;;;1.63;0.60;;;6.40;82.00;;;;;;5001858;28;20560;-47
2022/01/31 13:17:31;;;;;;;0.67;0.60;;;6.40;82.80;;;;;;5003575;28;20460;-46
2022/01/31 13:20:00;;;;;;;4.23;0.90;;;6.40;82.30;;;;;;5001142;28;20463;-47
2022/01/31 13:22:38;;;;;;;1.03;0.60;;;6.30;83.30;;;;;;5011907;28;20492;-47
2022/01/31 13:25:11;;;;;;;0.50;0.40;;;6.30;83.10;;;;;;4981391;28;20957;-47
2022/01/31 13:27:58;;;;;;;0.63;0.50;;;6.30;83.70;;;;;;4971306;28;20498;-46
2022/01/31 13:30:28;;;;;;;0.63;0.63;;;6.30;83.20;;;;;;5013114;28;20565;-46
2022/01/31 13:32:56;;;;;;;2.03;0.70;;;6.30;83.20;;;;;;4979314;28;20496;-47
2022/01/31 13:35:24;;;;;;;0.90;0.57;;;6.30;83.30;;;;;;4978817;28;20465;-47
2022/01/31 13:38:01;;;;;;;0.47;0.47;;;6.30;82.90;;;;;;4977117;28;20488;-48
2022/01/31 13:40:42;;;;;;;0.57;0.40;;;6.30;83.30;;;;;;4978188;28;20468;-47
2022/01/31 13:43:17;;;;;;;0.60;0.60;;;6.30;82.50;;;;;;4983608;28;20461;-48
2022/01/31 13:46:09;;;;;;;1.33;0.30;;;6.30;81.90;;;;;;4982209;28;20838;-47
2022/01/31 13:51:44;;;;;;;2.30;1.17;;;6.30;82.80;;;;;;4984976;28;20461;-47
2022/01/31 13:54:17;;;;;;;2.07;0.77;;;6.30;83.40;;;;;;4985338;28;20460;-47
2022/01/31 13:56:49;;;;;;;0.87;0.53;;;6.30;82.90;;;;;;4982154;28;20484;-47
2022/01/31 13:59:36;;;;;;;1.13;1.03;;;6.20;82.30;;;;;;4983837;28;20453;-47
2022/01/31 14:02:11;;;;;;;4.10;0.60;;;6.20;82.10;;;;;;4975342;28;20469;-47
2022/01/31 14:04:40;;;;;;;1.40;1.13;;;6.20;82.80;;;;;;4979946;28;20619;-48
2022/01/31 14:07:26;;;;;;;1.40;0.67;;;6.10;83.10;;;;;;4981216;28;20860;-47
2022/01/31 14:09:54;;;;;;;0.70;0.40;;;6.10;83.70;;;;;;4977901;28;20462;-47
2022/01/31 14:12:24;;;;;;;0.40;0.30;;;6.10;83.90;;;;;;4978714;28;20492;-48
2022/01/31 14:14:50;;;;;;;1.03;0.30;;;6.20;83.10;;;;;;4978065;28;20465;-47
2022/01/31 14:17:21;;;;;;;1.43;0.60;;;6.20;82.30;;;;;;4977387;28;20876;-47
2022/01/31 14:19:52;;;;;;;1.63;1.00;;;6.20;82.80;;;;;;4969175;28;20469;-47
2022/01/31 14:22:25;;;;;;;0.93;0.43;;;6.20;82.70;;;;;;4975896;28;20576;-47
2022/01/31 14:24:53;;;;;;;1.10;0.60;;;6.20;82.50;;;;;;4977582;28;20469;-47
2022/01/31 14:27:20;;;;;;;1.17;0.70;;;6.30;82.40;;;;;;4978332;28;20490;-47
2022/01/31 14:29:56;;;;;;;0.57;0.47;;;6.30;82.90;;;;;;4972997;28;21062;-47
2022/01/31 14:32:24;;;;;;;0.60;0.50;;;6.30;82.60;;;;;;4989960;28;20977;-47
2022/01/31 14:34:59;;;;;;;1.90;0.70;;;6.30;82.00;;;;;;4977510;28;20457;-48
2022/01/31 14:37:32;;;;;;;1.53;0.90;;;6.30;82.40;;;;;;4971221;28;20469;-47
2022/01/31 14:40:26;;;;;;;1.17;1.07;;;6.30;82.00;;;;;;4976909;28;20457;-47
2022/01/31 14:43:13;;;;;;;1.80;0.43;;;6.30;81.90;;;;;;4977566;28;20984;-46
2022/01/31 14:48:31;;;;;;;0.90;0.50;;;6.30;82.10;;;;;;4976674;28;21455;-46
2022/01/31 14:50:58;;;;;;;1.33;0.50;;;6.40;82.20;;;;;;5006304;28;20575;-47
2022/01/31 14:53:25;;;;;;;1.50;0.47;;;6.40;81.90;;;;;;4967844;28;20458;-47
2022/01/31 14:55:52;;;;;;;2.83;1.20;;;6.40;81.30;;;;;;4974861;28;21066;-47
2022/01/31 14:58:19;;;;;;;1.87;0.60;;;6.50;80.80;;;;;;4976641;28;20569;-47
2022/01/31 15:00:46;;;;;;;0.60;0.50;;;6.50;80.90;;;;;;4976075;28;20461;-47
2022/01/31 15:03:14;;;;;;;0.63;0.60;;;6.60;80.40;;;;;;4976156;28;21442;-47
2022/01/31 15:05:41;;;;;;;0.50;0.30;;;6.60;80.10;;;;;;4975325;28;20902;-47